createdAt,value
2018-02-08T00:00:39.917Z,1.70
2018-02-08T00:03:07.375Z,1.70
2018-02-08T00:05:34.834Z,1.70
2018-02-08T00:08:02.280Z,1.60
2018-02-08T00:10:29.746Z,1.60
2018-02-08T00:12:57.197Z,1.60
2018-02-08T00:15:24.691Z,1.60
2018-02-08T00:17:52.136Z,1.60
2018-02-08T00:20:19.597Z,1.60
2018-02-08T00:22:47.048Z,1.60
2018-02-08T00:25:14.543Z,1.60
2018-02-08T00:27:41.985Z,1.60
2018-02-08T00:30:09.441Z,1.60
2018-02-08T00:32:36.893Z,1.60
2018-02-08T00:35:04.353Z,1.60
2018-02-08T00:37:31.813Z,1.60
2018-02-08T00:39:59.288Z,1.60
2018-02-08T00:42:27.509Z,1.50
2018-02-08T00:44:54.980Z,1.50
2018-02-08T00:47:22.450Z,1.50
2018-02-08T00:49:49.900Z,1.50
2018-02-08T00:52:17.348Z,1.50
2018-02-08T00:54:44.813Z,1.50
2018-02-08T00:57:12.266Z,1.50
2018-02-08T00:59:39.727Z,1.50
2018-02-08T01:02:07.186Z,1.50
2018-02-08T01:04:34.633Z,1.50
2018-02-08T01:07:02.088Z,1.50
2018-02-08T01:09:29.544Z,1.50
2018-02-08T01:11:57.017Z,1.50
2018-02-08T01:14:24.465Z,1.50
2018-02-08T01:16:51.916Z,1.50
2018-02-08T01:19:19.368Z,1.50
2018-02-08T01:21:46.832Z,1.50
2018-02-08T01:24:14.285Z,1.50
2018-02-08T01:26:41.741Z,1.50
2018-02-08T01:29:09.198Z,1.50
2018-02-08T01:31:36.664Z,1.50
2018-02-08T01:34:04.113Z,1.50
2018-02-08T01:36:31.593Z,1.50
2018-02-08T01:38:59.045Z,1.50
2018-02-08T01:41:26.500Z,1.50
2018-02-08T01:43:53.954Z,1.50
2018-02-08T01:46:21.413Z,1.50
2018-02-08T01:48:48.873Z,1.50
2018-02-08T01:51:16.341Z,1.50
2018-02-08T01:53:43.798Z,1.40
2018-02-08T01:56:11.250Z,1.40
2018-02-08T01:58:38.697Z,1.40
2018-02-08T02:01:06.160Z,1.40
2018-02-08T02:03:33.605Z,1.40
2018-02-08T02:06:01.070Z,1.40
2018-02-08T02:08:28.532Z,1.40
2018-02-08T02:10:55.990Z,1.40
2018-02-08T02:13:23.445Z,1.50
2018-02-08T02:15:50.905Z,1.40
2018-02-08T02:18:18.370Z,1.40
2018-02-08T02:20:45.813Z,1.40
2018-02-08T02:23:13.278Z,1.40
2018-02-08T02:25:40.730Z,1.40
2018-02-08T02:28:08.189Z,1.40
2018-02-08T02:30:35.693Z,1.40
2018-02-08T02:33:03.141Z,1.40
2018-02-08T02:35:30.638Z,1.40
2018-02-08T02:37:58.083Z,1.40
2018-02-08T02:40:25.623Z,1.40
2018-02-08T02:42:53.073Z,1.40
2018-02-08T02:45:20.526Z,1.40
2018-02-08T02:47:47.976Z,1.40
2018-02-08T02:50:15.448Z,1.40
2018-02-08T02:52:42.901Z,1.40
2018-02-08T02:55:10.352Z,1.40
2018-02-08T02:57:37.813Z,1.40
2018-02-08T03:00:05.271Z,1.40
2018-02-08T03:02:32.712Z,1.40
2018-02-08T03:05:00.163Z,1.40
2018-02-08T03:07:28.396Z,1.30
2018-02-08T03:09:55.836Z,1.30
2018-02-08T03:12:23.295Z,1.30
2018-02-08T03:14:50.747Z,1.30
2018-02-08T03:17:18.209Z,1.40
2018-02-08T03:19:45.665Z,1.40
2018-02-08T03:22:13.119Z,1.40
2018-02-08T03:24:41.347Z,1.40
2018-02-08T03:27:09.574Z,1.40
2018-02-08T03:29:37.035Z,1.30
2018-02-08T03:32:04.483Z,1.30
2018-02-08T03:34:31.946Z,1.30
2018-02-08T03:36:59.403Z,1.30
2018-02-08T03:39:26.934Z,1.30
2018-02-08T03:41:54.376Z,1.30
2018-02-08T03:44:21.836Z,1.30
2018-02-08T03:46:49.288Z,1.30
2018-02-08T03:49:16.744Z,1.20
2018-02-08T03:51:44.199Z,1.20
2018-02-08T03:54:12.421Z,1.20
2018-02-08T03:56:39.874Z,1.20
2018-02-08T03:59:07.329Z,1.20
2018-02-08T04:01:34.788Z,1.20
2018-02-08T04:04:02.252Z,1.20
2018-02-08T04:06:29.698Z,1.20
2018-02-08T04:08:57.157Z,1.20
2018-02-08T04:11:24.625Z,1.20
2018-02-08T04:13:52.085Z,1.10
2018-02-08T04:16:19.540Z,1.10
2018-02-08T04:18:47.000Z,1.10
2018-02-08T04:21:14.451Z,1.10
2018-02-08T04:23:41.908Z,1.10
2018-02-08T04:26:09.365Z,1.10
2018-02-08T04:28:36.885Z,1.10
2018-02-08T04:31:04.322Z,1.10
2018-02-08T04:33:31.776Z,1.10
2018-02-08T04:35:59.224Z,1.10
2018-02-08T04:38:39.364Z,1.10
2018-02-08T04:41:19.333Z,1.10
2018-02-08T04:57:19.261Z,1.00
2018-02-08T04:59:46.721Z,1.00
2018-02-08T05:02:18.588Z,0.90
2018-02-08T05:04:46.045Z,0.90
2018-02-08T05:07:13.493Z,0.90
2018-02-08T05:09:40.945Z,0.90
2018-02-08T05:12:08.400Z,0.90
2018-02-08T05:14:35.985Z,0.90
2018-02-08T05:17:04.204Z,0.80
2018-02-08T05:19:32.435Z,0.80
2018-02-08T05:21:59.923Z,0.80
2018-02-08T05:24:27.328Z,0.80
2018-02-08T05:26:54.779Z,0.80
2018-02-08T05:29:22.280Z,0.70
2018-02-08T05:31:49.724Z,0.70
2018-02-08T05:34:17.177Z,0.70
2018-02-08T05:36:44.633Z,0.70
2018-02-08T05:39:12.085Z,0.80
2018-02-08T05:41:39.540Z,0.80
2018-02-08T05:44:06.988Z,0.80
2018-02-08T05:46:34.444Z,0.80
2018-02-08T05:49:01.888Z,0.80
2018-02-08T05:51:29.349Z,0.70
2018-02-08T05:53:56.929Z,0.70
2018-02-08T05:56:24.380Z,0.80
2018-02-08T05:58:51.832Z,0.70
2018-02-08T06:01:19.288Z,0.70
2018-02-08T06:03:46.736Z,0.70
2018-02-08T06:06:14.196Z,0.80
2018-02-08T06:08:41.641Z,0.80
2018-02-08T06:11:09.105Z,0.80
2018-02-08T06:13:36.558Z,0.80
2018-02-08T06:16:04.010Z,0.70
2018-02-08T06:18:31.460Z,0.70
2018-02-08T06:20:58.921Z,0.70
2018-02-08T06:23:26.381Z,0.70
2018-02-08T06:25:53.833Z,0.70
2018-02-08T06:28:21.300Z,0.70
2018-02-08T06:30:48.760Z,0.70
2018-02-08T06:33:16.213Z,0.70
2018-02-08T06:35:43.668Z,0.70
2018-02-08T06:38:11.120Z,0.70
2018-02-08T06:40:38.588Z,0.70
2018-02-08T06:43:06.037Z,0.70
2018-02-08T06:45:33.486Z,0.70
2018-02-08T06:48:00.933Z,0.70
2018-02-08T06:50:28.386Z,0.60
2018-02-08T06:52:55.841Z,0.60
2018-02-08T06:55:23.293Z,0.60
2018-02-08T06:57:51.511Z,0.60
2018-02-08T07:00:18.960Z,0.60
2018-02-08T07:02:46.412Z,0.50
2018-02-08T07:05:13.860Z,0.50
2018-02-08T07:07:41.317Z,0.50
2018-02-08T07:10:08.781Z,0.50
2018-02-08T07:12:36.225Z,0.40
2018-02-08T07:15:03.673Z,0.40
2018-02-08T07:17:31.133Z,0.40
2018-02-08T07:19:58.593Z,0.40
2018-02-08T07:22:26.050Z,0.40
2018-02-08T07:24:53.512Z,0.50
2018-02-08T07:27:20.965Z,0.40
2018-02-08T07:29:48.416Z,0.50
2018-02-08T07:32:15.890Z,0.50
2018-02-08T07:34:43.340Z,0.50
2018-02-08T07:37:10.793Z,0.50
2018-02-08T07:39:38.236Z,0.50
2018-02-08T07:42:05.692Z,0.50
2018-02-08T07:44:33.145Z,0.40
2018-02-08T07:47:00.664Z,0.40
2018-02-08T07:49:28.074Z,0.40
2018-02-08T07:51:55.532Z,0.40
2018-02-08T07:54:22.986Z,0.40
2018-02-08T07:56:50.432Z,0.40
2018-02-08T07:59:17.893Z,0.40
2018-02-08T08:01:45.345Z,0.40
2018-02-08T08:04:12.802Z,0.50
2018-02-08T08:06:40.246Z,0.50
2018-02-08T08:09:08.470Z,0.50
2018-02-08T08:11:35.917Z,0.50
2018-02-08T08:14:03.376Z,0.50
2018-02-08T08:16:30.829Z,0.40
2018-02-08T08:18:58.289Z,0.40
2018-02-08T08:21:25.744Z,0.40
2018-02-08T08:23:53.205Z,0.40
2018-02-08T08:26:20.657Z,0.40
2018-02-08T08:28:48.113Z,0.40
2018-02-08T08:31:15.569Z,0.40
2018-02-08T08:33:43.025Z,0.50
2018-02-08T08:36:10.477Z,0.50
2018-02-08T08:38:37.940Z,0.50
2018-02-08T08:41:05.393Z,0.50
2018-02-08T08:43:32.848Z,0.60
2018-02-08T08:46:00.297Z,0.60
2018-02-08T08:48:27.757Z,0.70
2018-02-08T08:50:55.222Z,0.80
2018-02-08T08:53:22.669Z,0.80
2018-02-08T08:55:50.117Z,0.80
2018-02-08T08:58:17.571Z,0.90
2018-02-08T09:00:45.029Z,1.00
2018-02-08T09:03:12.477Z,1.10
2018-02-08T09:05:39.941Z,1.10
2018-02-08T09:08:07.390Z,1.10
2018-02-08T09:10:34.844Z,1.20
2018-02-08T09:13:02.297Z,1.20
2018-02-08T09:15:29.757Z,1.30
2018-02-08T09:17:57.209Z,1.40
2018-02-08T09:20:24.689Z,1.40
2018-02-08T09:22:52.130Z,1.40
2018-02-08T09:25:19.590Z,1.40
2018-02-08T09:27:47.041Z,1.50
2018-02-08T09:30:14.508Z,1.50
2018-02-08T09:32:41.953Z,1.50
2018-02-08T09:35:09.413Z,1.60
2018-02-08T09:37:36.865Z,1.60
2018-02-08T09:40:04.324Z,1.70
2018-02-08T09:42:31.780Z,1.70
2018-02-08T09:44:59.234Z,1.70
2018-02-08T09:47:26.684Z,1.70
2018-02-08T09:49:54.162Z,1.70
2018-02-08T09:52:21.602Z,1.70
2018-02-08T09:54:49.829Z,1.80
2018-02-08T09:57:18.044Z,1.90
2018-02-08T09:59:46.269Z,1.90
2018-02-08T10:02:13.726Z,1.90
2018-02-08T10:04:41.182Z,1.90
2018-02-08T10:07:08.629Z,2.00
2018-02-08T10:09:36.109Z,2.00
2018-02-08T10:12:03.564Z,2.00
2018-02-08T10:14:31.018Z,2.00
2018-02-08T10:16:58.481Z,2.10
2018-02-08T10:19:25.929Z,2.10
2018-02-08T10:21:53.392Z,2.10
2018-02-08T10:24:20.853Z,2.10
2018-02-08T10:26:48.310Z,2.10
2018-02-08T10:29:15.761Z,2.20
2018-02-08T10:31:43.217Z,2.20
2018-02-08T10:34:10.670Z,2.20
2018-02-08T10:36:38.137Z,2.40
2018-02-08T10:39:05.594Z,2.40
2018-02-08T10:41:33.052Z,2.50
2018-02-08T10:44:00.510Z,2.60
2018-02-08T10:46:27.965Z,2.60
2018-02-08T10:48:55.417Z,2.60
2018-02-08T10:51:22.873Z,2.60
2018-02-08T10:53:50.329Z,2.50
2018-02-08T10:56:17.784Z,2.50
2018-02-08T10:58:45.232Z,2.50
2018-02-08T11:01:12.706Z,2.60
2018-02-08T11:03:40.154Z,2.60
2018-02-08T11:06:07.609Z,2.60
2018-02-08T11:08:35.065Z,2.60
2018-02-08T11:11:02.527Z,2.60
2018-02-08T11:13:29.977Z,2.70
2018-02-08T11:15:57.432Z,2.70
2018-02-08T11:18:24.880Z,2.70
2018-02-08T11:20:52.357Z,2.70
2018-02-08T11:23:19.811Z,2.70
2018-02-08T11:25:47.257Z,2.60
2018-02-08T11:28:14.717Z,2.60
2018-02-08T11:30:42.168Z,2.60
2018-02-08T11:33:09.625Z,2.50
2018-02-08T11:35:37.080Z,2.50
2018-02-08T11:38:04.542Z,2.50
2018-02-08T11:40:32.756Z,2.60
2018-02-08T11:43:00.217Z,2.50
2018-02-08T11:45:27.669Z,2.60
2018-02-08T11:47:55.906Z,2.60
2018-02-08T11:50:23.361Z,2.60
2018-02-08T11:52:50.821Z,2.60
2018-02-08T11:55:18.263Z,2.70
2018-02-08T11:57:45.721Z,2.70
2018-02-08T12:00:13.168Z,2.70
2018-02-08T12:02:40.624Z,2.70
2018-02-08T12:05:08.072Z,2.70
2018-02-08T12:07:35.539Z,2.60
2018-02-08T12:10:03.016Z,2.60
2018-02-08T12:12:30.445Z,2.70
2018-02-08T12:14:57.897Z,2.70
2018-02-08T12:17:25.353Z,2.80
2018-02-08T12:19:52.805Z,2.80
2018-02-08T12:22:20.265Z,2.80
2018-02-08T12:24:47.722Z,2.90
2018-02-08T12:27:15.177Z,3.00
2018-02-08T12:29:42.633Z,3.00
2018-02-08T12:32:10.089Z,3.10
2018-02-08T12:34:37.544Z,3.10
2018-02-08T12:37:05.000Z,3.20
2018-02-08T12:39:32.457Z,3.30
2018-02-08T12:41:59.910Z,3.30
2018-02-08T12:44:27.366Z,3.30
2018-02-08T12:46:54.816Z,3.40
2018-02-08T12:49:22.270Z,3.40
2018-02-08T12:51:49.720Z,3.40
2018-02-08T12:54:17.177Z,3.50
2018-02-08T12:56:44.625Z,3.50
2018-02-08T12:59:12.890Z,3.60
2018-02-08T13:01:40.301Z,3.60
2018-02-08T13:04:07.756Z,3.60
2018-02-08T13:06:35.208Z,3.60
2018-02-08T13:09:02.754Z,3.60
2018-02-08T13:11:30.188Z,3.60
2018-02-08T13:13:57.645Z,3.60
2018-02-08T13:16:25.101Z,3.60
2018-02-08T13:18:53.320Z,3.70
2018-02-08T13:21:20.773Z,3.70
2018-02-08T13:23:48.232Z,3.70
2018-02-08T13:26:15.741Z,3.70
2018-02-08T13:28:43.148Z,3.70
2018-02-08T13:31:16.174Z,3.70
2018-02-08T13:33:44.396Z,3.60
2018-02-08T13:36:11.844Z,3.60
2018-02-08T13:38:39.301Z,3.60
2018-02-08T13:41:06.760Z,3.50
2018-02-08T13:43:34.237Z,3.50
2018-02-08T13:46:01.688Z,3.50
2018-02-08T13:48:30.725Z,3.50
2018-02-08T13:50:59.369Z,3.50
2018-02-08T13:53:31.652Z,3.50
2018-02-08T14:09:20.608Z,3.60
2018-02-08T14:11:48.061Z,3.50
2018-02-08T14:14:15.530Z,3.40
2018-02-08T14:16:42.973Z,3.50
2018-02-08T14:19:10.428Z,3.50
2018-02-08T14:21:39.012Z,3.50
2018-02-08T14:24:06.469Z,3.50
2018-02-08T14:26:33.928Z,3.60
2018-02-08T14:29:01.386Z,3.60
2018-02-08T14:31:28.845Z,3.60
2018-02-08T14:33:56.297Z,3.60
2018-02-08T14:36:23.753Z,3.60
2018-02-08T14:38:51.209Z,3.60
2018-02-08T14:41:18.673Z,3.60
2018-02-08T14:43:46.117Z,3.60
2018-02-08T14:46:13.576Z,3.60
2018-02-08T14:48:41.030Z,3.50
2018-02-08T14:51:08.492Z,3.40
2018-02-08T14:53:35.944Z,3.40
2018-02-08T14:56:03.401Z,3.40
2018-02-08T14:58:30.862Z,3.40
2018-02-08T15:00:58.323Z,3.30
2018-02-08T15:03:25.769Z,3.30
2018-02-08T15:05:53.229Z,3.30
2018-02-08T15:08:20.681Z,3.30
2018-02-08T15:10:48.159Z,3.30
2018-02-08T15:13:15.614Z,3.30
2018-02-08T15:15:43.073Z,3.30
2018-02-08T15:18:11.299Z,3.20
2018-02-08T15:20:38.753Z,3.20
2018-02-08T15:23:06.218Z,3.20
2018-02-08T15:25:33.689Z,3.20
2018-02-08T15:28:01.133Z,3.20
2018-02-08T15:30:28.604Z,3.20
2018-02-08T15:32:56.061Z,3.20
2018-02-08T15:35:23.521Z,3.10
2018-02-08T15:37:50.980Z,3.10
2018-02-08T15:40:18.429Z,3.10
2018-02-08T15:42:45.900Z,3.10
2018-02-08T15:45:13.361Z,3.00
2018-02-08T15:47:40.820Z,3.00
2018-02-08T15:50:08.281Z,3.00
2018-02-08T15:52:35.733Z,2.90
2018-02-08T15:55:03.195Z,2.90
2018-02-08T15:57:31.420Z,2.90
2018-02-08T15:59:58.879Z,2.80
2018-02-08T16:02:26.329Z,2.80
2018-02-08T16:04:53.786Z,2.80
2018-02-08T16:07:21.246Z,2.80
2018-02-08T16:09:48.696Z,2.80
2018-02-08T16:12:16.158Z,2.70
2018-02-08T16:14:43.613Z,2.70
2018-02-08T16:17:11.069Z,2.70
2018-02-08T16:19:38.579Z,2.60
2018-02-08T16:22:05.980Z,2.60
2018-02-08T16:24:33.445Z,2.60
2018-02-08T16:27:00.900Z,2.50
2018-02-08T16:29:28.361Z,2.50
2018-02-08T16:31:55.812Z,2.50
2018-02-08T16:34:23.264Z,2.40
2018-02-08T16:36:50.757Z,2.40
2018-02-08T16:39:18.209Z,2.30
2018-02-08T16:41:45.660Z,2.30
2018-02-08T16:44:13.129Z,2.30
2018-02-08T16:46:40.586Z,2.30
2018-02-08T16:49:08.041Z,2.20
2018-02-08T16:51:35.492Z,2.20
2018-02-08T16:54:02.949Z,2.10
2018-02-08T16:56:30.405Z,2.10
2018-02-08T16:58:57.865Z,2.10
2018-02-08T17:01:25.312Z,2.10
2018-02-08T17:03:52.773Z,2.10
2018-02-08T17:06:20.230Z,2.00
2018-02-08T17:08:47.700Z,2.00
2018-02-08T17:11:15.178Z,2.00
2018-02-08T17:13:43.408Z,1.90
2018-02-08T17:16:10.868Z,1.90
2018-02-08T17:18:38.329Z,1.80
2018-02-08T17:21:05.797Z,1.80
2018-02-08T17:23:33.249Z,1.80
2018-02-08T17:26:00.709Z,1.80
2018-02-08T17:28:28.160Z,1.80
2018-02-08T17:30:55.614Z,1.80
2018-02-08T17:33:23.074Z,1.80
2018-02-08T17:35:50.522Z,1.80
2018-02-08T17:38:18.001Z,1.80
2018-02-08T17:40:45.457Z,1.80
2018-02-08T17:43:12.909Z,1.80
2018-02-08T17:45:40.373Z,1.80
2018-02-08T17:48:07.824Z,1.90
2018-02-08T17:50:35.285Z,1.80
2018-02-08T17:53:02.739Z,1.90
2018-02-08T17:55:30.204Z,1.80
2018-02-08T17:57:57.651Z,1.80
2018-02-08T18:00:25.105Z,1.80
2018-02-08T18:02:52.556Z,1.90
2018-02-08T18:05:20.026Z,1.80
2018-02-08T18:07:47.477Z,1.80
2018-02-08T18:10:15.624Z,1.80
2018-02-08T18:12:43.082Z,1.80
2018-02-08T18:15:11.310Z,1.80
2018-02-08T18:17:38.765Z,1.80
2018-02-08T18:20:06.992Z,1.80
2018-02-08T18:22:34.448Z,1.80
2018-02-08T18:25:01.909Z,1.80
2018-02-08T18:27:29.361Z,1.80
2018-02-08T18:29:57.588Z,1.70
2018-02-08T18:32:25.036Z,1.70
2018-02-08T18:34:53.268Z,1.60
2018-02-08T18:37:20.771Z,1.60
2018-02-08T18:39:48.186Z,1.60
2018-02-08T18:42:15.637Z,1.60
2018-02-08T18:44:43.098Z,1.60
2018-02-08T18:47:10.806Z,1.50
2018-02-08T18:49:39.022Z,1.50
2018-02-08T18:52:06.468Z,1.50
2018-02-08T18:54:33.933Z,1.50
2018-02-08T18:57:01.390Z,1.50
2018-02-08T18:59:28.845Z,1.50
2018-02-08T19:01:56.296Z,1.40
2018-02-08T19:04:23.777Z,1.40
2018-02-08T19:06:51.237Z,1.40
2018-02-08T19:09:18.702Z,1.40
2018-02-08T19:11:46.153Z,1.30
2018-02-08T19:14:13.606Z,1.30
2018-02-08T19:16:41.064Z,1.30
2018-02-08T19:19:08.528Z,1.30
2018-02-08T19:21:35.984Z,1.20
2018-02-08T19:24:03.442Z,1.20
2018-02-08T19:26:30.900Z,1.20
2018-02-08T19:28:58.355Z,1.20
2018-02-08T19:31:25.819Z,1.10
2018-02-08T19:33:53.264Z,1.10
2018-02-08T19:36:20.721Z,1.10
2018-02-08T19:38:48.181Z,1.10
2018-02-08T19:41:15.641Z,1.10
2018-02-08T19:43:43.090Z,1.10
2018-02-08T19:46:10.557Z,1.10
2018-02-08T19:48:38.010Z,1.10
2018-02-08T19:51:05.482Z,1.10
2018-02-08T19:53:33.760Z,1.00
2018-02-08T19:56:01.165Z,0.90
2018-02-08T19:58:28.621Z,0.90
2018-02-08T20:00:56.078Z,1.00
2018-02-08T20:03:23.533Z,0.90
2018-02-08T20:05:51.001Z,0.90
2018-02-08T20:08:18.462Z,0.90
2018-02-08T20:10:45.921Z,0.80
2018-02-08T20:13:13.385Z,0.90
2018-02-08T20:15:40.841Z,0.80
2018-02-08T20:18:08.296Z,0.80
2018-02-08T20:20:35.757Z,0.80
2018-02-08T20:23:03.212Z,0.80
2018-02-08T20:25:34.511Z,0.80
2018-02-08T20:28:01.976Z,0.80
2018-02-08T20:30:29.433Z,0.90
2018-02-08T20:32:56.901Z,0.90
2018-02-08T20:35:24.362Z,0.90
2018-02-08T20:37:51.831Z,0.90
2018-02-08T20:40:21.832Z,0.90
2018-02-08T20:42:54.909Z,0.90
2018-02-08T20:45:22.374Z,0.90
2018-02-08T20:47:49.832Z,0.90
2018-02-08T20:50:17.382Z,0.90
2018-02-08T20:52:44.864Z,1.00
2018-02-08T20:55:12.319Z,1.00
2018-02-08T20:57:39.773Z,1.00
2018-02-08T21:00:07.220Z,1.00
2018-02-08T21:02:34.681Z,1.00
2018-02-08T21:05:02.142Z,1.00
2018-02-08T21:07:29.600Z,1.00
2018-02-08T21:09:57.823Z,1.10
2018-02-08T21:12:26.038Z,1.10
2018-02-08T21:14:53.500Z,1.10
2018-02-08T21:17:20.960Z,1.10
2018-02-08T21:19:48.412Z,1.10
2018-02-08T21:22:15.873Z,1.10
2018-02-08T21:24:43.325Z,1.20
2018-02-08T21:27:10.781Z,1.20
2018-02-08T21:29:38.240Z,1.20
2018-02-08T21:32:05.701Z,1.20
2018-02-08T21:34:33.204Z,1.30
2018-02-08T21:37:00.617Z,1.30
2018-02-08T21:39:28.161Z,1.30
2018-02-08T21:41:55.613Z,1.30
2018-02-08T21:44:23.160Z,1.30
2018-02-08T21:46:50.601Z,1.30
2018-02-08T21:49:18.087Z,1.40
2018-02-08T21:51:45.573Z,1.40
2018-02-08T21:54:12.998Z,1.40
2018-02-08T21:56:40.465Z,1.40
2018-02-08T21:59:07.912Z,1.40
2018-02-08T22:01:35.373Z,1.40
2018-02-08T22:04:02.824Z,1.40
2018-02-08T22:06:30.290Z,1.40
2018-02-08T22:08:57.741Z,1.40
2018-02-08T22:11:25.222Z,1.30
2018-02-08T22:13:52.677Z,1.30
2018-02-08T22:16:20.157Z,1.40
2018-02-08T22:18:48.382Z,1.40
2018-02-08T22:21:15.845Z,1.40
2018-02-08T22:23:43.300Z,1.40
2018-02-08T22:26:10.762Z,1.30
2018-02-08T22:28:38.218Z,1.30
2018-02-08T22:31:05.680Z,1.40
2018-02-08T22:33:33.213Z,1.40
2018-02-08T22:36:00.698Z,1.40
2018-02-08T22:38:28.154Z,1.40
2018-02-08T22:40:55.614Z,1.50
2018-02-08T22:43:23.093Z,1.50
2018-02-08T22:45:50.552Z,1.50
2018-02-08T22:48:18.005Z,1.50
2018-02-08T22:50:45.487Z,1.50
2018-02-08T22:53:13.701Z,1.50
2018-02-08T22:55:41.154Z,1.50
2018-02-08T22:58:08.634Z,1.50
2018-02-08T23:00:36.089Z,1.50
2018-02-08T23:03:04.321Z,1.50
2018-02-08T23:05:31.770Z,1.50
2018-02-08T23:07:59.233Z,1.60
2018-02-08T23:10:26.685Z,1.60
2018-02-08T23:12:54.151Z,1.60
2018-02-08T23:15:21.616Z,1.60
2018-02-08T23:17:49.078Z,1.60
2018-02-08T23:20:16.538Z,1.60
2018-02-08T23:22:43.997Z,1.60
2018-02-08T23:25:11.457Z,1.70
2018-02-08T23:27:38.932Z,1.70
2018-02-08T23:30:06.389Z,1.70
2018-02-08T23:32:33.851Z,1.70
2018-02-08T23:35:01.309Z,1.80
2018-02-08T23:37:28.773Z,1.80
2018-02-08T23:39:56.242Z,1.80
2018-02-08T23:42:24.469Z,1.80
2018-02-08T23:44:51.925Z,1.70
2018-02-08T23:47:19.389Z,1.80
2018-02-08T23:49:46.841Z,1.80
2018-02-08T23:52:14.740Z,1.80
2018-02-08T23:54:42.197Z,1.80
2018-02-08T23:57:09.665Z,1.80
2018-02-08T23:59:37.110Z,1.90
